sensor_id;sensor_type;location;lat;lon;timestamp;pressure;altitude;pressure_sealevel;temperature;humidity
31717;BME280;18301;51.076;17.046;2022-09-03T00:00:19;100490.91;;;15.74;60.23
31717;BME280;18301;51.076;17.046;2022-09-03T00:05:38;100483.31;;;15.68;60.23
31717;BME280;18301;51.076;17.046;2022-09-03T00:16:21;100478.16;;;15.55;60.68
31717;BME280;18301;51.076;17.046;2022-09-03T00:22:04;100464.69;;;15.43;60.67
31717;BME280;18301;51.076;17.046;2022-09-03T00:27:13;100465.81;;;15.31;60.81
31717;BME280;18301;51.076;17.046;2022-09-03T00:32:20;100462.25;;;15.21;60.93
31717;BME280;18301;51.076;17.046;2022-09-03T00:37:26;100462.38;;;15.29;60.87
31717;BME280;18301;51.076;17.046;2022-09-03T00:43:00;100466.50;;;15.14;61.37
31717;BME280;18301;51.076;17.046;2022-09-03T00:48:12;100468.09;;;15.07;61.40
31717;BME280;18301;51.076;17.046;2022-09-03T01:15:09;100469.16;;;14.75;62.58
31717;BME280;18301;51.076;17.046;2022-09-03T01:31:16;100467.50;;;14.53;62.98
31717;BME280;18301;51.076;17.046;2022-09-03T01:53:03;100456.41;;;14.04;64.28
31717;BME280;18301;51.076;17.046;2022-09-03T01:58:19;100457.00;;;13.87;64.46
31717;BME280;18301;51.076;17.046;2022-09-03T02:03:23;100435.44;;;13.65;64.59
31717;BME280;18301;51.076;17.046;2022-09-03T02:08:26;100456.59;;;13.71;64.77
31717;BME280;18301;51.076;17.046;2022-09-03T02:13:31;100465.00;;;13.68;65.04
31717;BME280;18301;51.076;17.046;2022-09-03T02:18:39;100460.81;;;13.64;65.19
31717;BME280;18301;51.076;17.046;2022-09-03T02:23:42;100464.31;;;13.54;65.64
31717;BME280;18301;51.076;17.046;2022-09-03T02:28:44;100464.31;;;13.54;65.51
31717;BME280;18301;51.076;17.046;2022-09-03T02:33:47;100463.00;;;13.49;65.42
31717;BME280;18301;51.076;17.046;2022-09-03T02:38:49;100467.63;;;13.37;65.79
31717;BME280;18301;51.076;17.046;2022-09-03T02:49:08;100468.00;;;13.32;65.78
31717;BME280;18301;51.076;17.046;2022-09-03T02:54:10;100461.38;;;13.25;66.01
31717;BME280;18301;51.076;17.046;2022-09-03T02:59:12;100468.88;;;13.22;66.30
31717;BME280;18301;51.076;17.046;2022-09-03T03:04:14;100472.44;;;13.22;66.54
31717;BME280;18301;51.076;17.046;2022-09-03T03:09:16;100469.59;;;13.24;66.44
31717;BME280;18301;51.076;17.046;2022-09-03T03:14:18;100461.97;;;13.29;66.90
31717;BME280;18301;51.076;17.046;2022-09-03T03:19:20;100472.81;;;13.29;67.02
31717;BME280;18301;51.076;17.046;2022-09-03T03:24:21;100473.94;;;13.26;67.15
31717;BME280;18301;51.076;17.046;2022-09-03T03:29:23;100466.88;;;13.24;67.07
31717;BME280;18301;51.076;17.046;2022-09-03T03:34:25;100472.69;;;13.19;67.02
31717;BME280;18301;51.076;17.046;2022-09-03T03:39:27;100463.13;;;13.15;67.27
31717;BME280;18301;51.076;17.046;2022-09-03T03:44:28;100470.16;;;13.06;67.33
31717;BME280;18301;51.076;17.046;2022-09-03T03:49:30;100463.53;;;12.99;67.38
31717;BME280;18301;51.076;17.046;2022-09-03T03:54:32;100470.31;;;12.94;67.83
31717;BME280;18301;51.076;17.046;2022-09-03T03:59:33;100471.78;;;12.86;68.06
31717;BME280;18301;51.076;17.046;2022-09-03T04:04:35;100469.22;;;12.85;68.35
31717;BME280;18301;51.076;17.046;2022-09-03T04:09:37;100474.63;;;12.85;68.24
31717;BME280;18301;51.076;17.046;2022-09-03T04:14:39;100469.22;;;12.85;68.56
31717;BME280;18301;51.076;17.046;2022-09-03T04:19:40;100472.94;;;12.84;68.56
31717;BME280;18301;51.076;17.046;2022-09-03T04:24:42;100468.38;;;12.84;68.50
31717;BME280;18301;51.076;17.046;2022-09-03T04:29:43;100472.69;;;12.87;68.51
31717;BME280;18301;51.076;17.046;2022-09-03T04:34:45;100479.56;;;12.91;68.23
31717;BME280;18301;51.076;17.046;2022-09-03T04:39:47;100483.00;;;12.93;67.99
31717;BME280;18301;51.076;17.046;2022-09-03T04:44:49;100493.34;;;12.88;67.98
31717;BME280;18301;51.076;17.046;2022-09-03T04:49:50;100489.19;;;12.84;67.77
31717;BME280;18301;51.076;17.046;2022-09-03T04:54:53;100487.69;;;12.91;67.76
31717;BME280;18301;51.076;17.046;2022-09-03T04:59:55;100477.59;;;12.93;67.38
31717;BME280;18301;51.076;17.046;2022-09-03T05:04:57;100488.03;;;12.86;67.37
31717;BME280;18301;51.076;17.046;2022-09-03T05:09:58;100496.03;;;12.99;67.38
31717;BME280;18301;51.076;17.046;2022-09-03T05:15:00;100511.16;;;13.13;67.58
31717;BME280;18301;51.076;17.046;2022-09-03T05:20:02;100512.72;;;13.27;67.51
31717;BME280;18301;51.076;17.046;2022-09-03T05:25:04;100511.00;;;13.37;67.47
31717;BME280;18301;51.076;17.046;2022-09-03T05:30:06;100514.38;;;13.50;66.81
31717;BME280;18301;51.076;17.046;2022-09-03T05:35:08;100505.81;;;13.66;67.11
31717;BME280;18301;51.076;17.046;2022-09-03T05:40:11;100517.47;;;13.78;65.92
31717;BME280;18301;51.076;17.046;2022-09-03T05:45:12;100501.56;;;13.94;65.46
31717;BME280;18301;51.076;17.046;2022-09-03T05:50:14;100506.47;;;14.00;65.17
31717;BME280;18301;51.076;17.046;2022-09-03T05:55:16;100508.13;;;14.13;64.66
31717;BME280;18301;51.076;17.046;2022-09-03T06:00:20;100515.72;;;14.19;64.00
31717;BME280;18301;51.076;17.046;2022-09-03T06:05:22;100501.69;;;14.35;63.59
31717;BME280;18301;51.076;17.046;2022-09-03T06:10:24;100502.94;;;14.52;63.11
31717;BME280;18301;51.076;17.046;2022-09-03T06:15:32;100502.34;;;14.79;62.12
31717;BME280;18301;51.076;17.046;2022-09-03T06:20:34;100500.66;;;14.87;61.27
31717;BME280;18301;51.076;17.046;2022-09-03T06:25:37;100503.72;;;14.63;61.90
31717;BME280;18301;51.076;17.046;2022-09-03T06:30:42;100506.91;;;14.78;62.86
31717;BME280;18301;51.076;17.046;2022-09-03T06:35:44;100520.75;;;15.15;62.38
31717;BME280;18301;51.076;17.046;2022-09-03T06:40:53;100524.50;;;15.24;62.35
31717;BME280;18301;51.076;17.046;2022-09-03T06:45:56;100524.78;;;15.50;62.04
31717;BME280;18301;51.076;17.046;2022-09-03T06:51:15;100529.84;;;15.74;60.91
31717;BME280;18301;51.076;17.046;2022-09-03T06:56:20;100520.94;;;15.92;60.53
31717;BME280;18301;51.076;17.046;2022-09-03T07:01:29;100519.78;;;16.14;60.14
31717;BME280;18301;51.076;17.046;2022-09-03T07:06:36;100518.72;;;16.34;59.77
31717;BME280;18301;51.076;17.046;2022-09-03T07:11:39;100523.09;;;16.54;59.14
31717;BME280;18301;51.076;17.046;2022-09-03T07:16:49;100525.88;;;16.45;59.21
31717;BME280;18301;51.076;17.046;2022-09-03T07:21:51;100513.97;;;16.46;59.36
31717;BME280;18301;51.076;17.046;2022-09-03T07:26:52;100522.13;;;16.46;58.61
31717;BME280;18301;51.076;17.046;2022-09-03T07:31:55;100518.56;;;16.83;58.60
31717;BME280;18301;51.076;17.046;2022-09-03T07:36:57;100518.09;;;16.97;58.78
31717;BME280;18301;51.076;17.046;2022-09-03T07:41:59;100529.41;;;17.20;57.60
31717;BME280;18301;51.076;17.046;2022-09-03T07:47:01;100524.59;;;17.32;58.15
31717;BME280;18301;51.076;17.046;2022-09-03T07:52:03;100519.09;;;17.59;57.62
31717;BME280;18301;51.076;17.046;2022-09-03T07:57:05;100531.28;;;17.83;56.40
31717;BME280;18301;51.076;17.046;2022-09-03T08:02:07;100525.47;;;18.04;57.12
31717;BME280;18301;51.076;17.046;2022-09-03T08:07:09;100527.22;;;18.31;56.84
31717;BME280;18301;51.076;17.046;2022-09-03T08:12:10;100519.50;;;18.52;56.03
31717;BME280;18301;51.076;17.046;2022-09-03T08:17:12;100522.50;;;18.67;56.18
31717;BME280;18301;51.076;17.046;2022-09-03T08:22:14;100531.41;;;18.69;55.90
31717;BME280;18301;51.076;17.046;2022-09-03T08:27:15;100521.94;;;18.90;55.66
31717;BME280;18301;51.076;17.046;2022-09-03T08:32:17;100515.72;;;19.14;55.75
31717;BME280;18301;51.076;17.046;2022-09-03T08:37:19;100505.53;;;19.40;54.96
31717;BME280;18301;51.076;17.046;2022-09-03T08:47:36;100514.50;;;19.83;54.50
31717;BME280;18301;51.076;17.046;2022-09-03T08:52:44;100505.94;;;20.03;53.30
31717;BME280;18301;51.076;17.046;2022-09-03T08:57:58;100497.72;;;20.03;53.28
31717;BME280;18301;51.076;17.046;2022-09-03T09:08:37;100501.44;;;20.42;52.78
31717;BME280;18301;51.076;17.046;2022-09-03T09:24:14;100476.34;;;20.78;51.69
31717;BME280;18301;51.076;17.046;2022-09-03T09:29:26;100484.16;;;20.89;50.88
31717;BME280;18301;51.076;17.046;2022-09-03T09:34:34;100476.19;;;21.03;51.66
31717;BME280;18301;51.076;17.046;2022-09-03T09:39:36;100481.38;;;21.37;49.67
31717;BME280;18301;51.076;17.046;2022-09-03T09:44:41;100476.94;;;21.28;49.23
31717;BME280;18301;51.076;17.046;2022-09-03T09:49:54;100472.41;;;21.35;49.14
31717;BME280;18301;51.076;17.046;2022-09-03T09:55:16;100471.28;;;21.21;49.40
31717;BME280;18301;51.076;17.046;2022-09-03T10:00:18;100463.44;;;21.49;48.99
31717;BME280;18301;51.076;17.046;2022-09-03T10:05:23;100471.72;;;21.64;48.55
31717;BME280;18301;51.076;17.046;2022-09-03T10:10:27;100473.72;;;21.70;48.68
31717;BME280;18301;51.076;17.046;2022-09-03T10:15:51;100441.97;;;21.53;48.19
31717;BME280;18301;51.076;17.046;2022-09-03T10:26:21;100449.84;;;21.94;46.94
31717;BME280;18301;51.076;17.046;2022-09-03T10:31:44;100456.06;;;21.88;46.70
31717;BME280;18301;51.076;17.046;2022-09-03T10:36:58;100445.66;;;21.83;46.82
31717;BME280;18301;51.076;17.046;2022-09-03T10:53:04;100432.16;;;22.11;47.08
31717;BME280;18301;51.076;17.046;2022-09-03T11:03:32;100418.72;;;22.46;48.20
31717;BME280;18301;51.076;17.046;2022-09-03T11:08:47;100406.13;;;22.37;45.94
31717;BME280;18301;51.076;17.046;2022-09-03T11:14:11;100405.84;;;22.46;45.78
31717;BME280;18301;51.076;17.046;2022-09-03T11:19:17;100408.78;;;22.30;45.68
31717;BME280;18301;51.076;17.046;2022-09-03T11:24:25;100406.03;;;21.77;46.54
31717;BME280;18301;51.076;17.046;2022-09-03T11:34:53;100392.59;;;21.45;47.36
31717;BME280;18301;51.076;17.046;2022-09-03T11:50:33;100377.69;;;22.29;46.39
31717;BME280;18301;51.076;17.046;2022-09-03T11:55:57;100381.25;;;22.15;47.35
31717;BME280;18301;51.076;17.046;2022-09-03T12:01:11;100390.72;;;21.98;46.42
31717;BME280;18301;51.076;17.046;2022-09-03T12:22:12;100381.78;;;21.20;49.40
31717;BME280;18301;51.076;17.046;2022-09-03T12:27:21;100374.19;;;20.99;50.07
31717;BME280;18301;51.076;17.046;2022-09-03T12:32:30;100371.28;;;21.01;49.52
31717;BME280;18301;51.076;17.046;2022-09-03T12:37:32;100371.38;;;21.30;50.52
31717;BME280;18301;51.076;17.046;2022-09-03T12:43:13;100367.88;;;21.68;48.37
31717;BME280;18301;51.076;17.046;2022-09-03T12:48:36;100363.28;;;21.60;47.98
31717;BME280;18301;51.076;17.046;2022-09-03T12:53:40;100370.63;;;21.45;48.08
31717;BME280;18301;51.076;17.046;2022-09-03T12:58:53;100366.47;;;21.49;48.57
31717;BME280;18301;51.076;17.046;2022-09-03T13:04:04;100362.44;;;21.36;49.41
31717;BME280;18301;51.076;17.046;2022-09-03T13:09:12;100353.09;;;21.46;49.48
31717;BME280;18301;51.076;17.046;2022-09-03T13:14:15;100351.47;;;21.74;49.51
31717;BME280;18301;51.076;17.046;2022-09-03T13:40:36;100363.22;;;21.98;47.56
31717;BME280;18301;51.076;17.046;2022-09-03T13:45:51;100361.63;;;21.74;47.58
31717;BME280;18301;51.076;17.046;2022-09-03T13:51:22;100361.84;;;21.49;48.08
31717;BME280;18301;51.076;17.046;2022-09-03T14:07:05;100357.28;;;21.42;48.49
31717;BME280;18301;51.076;17.046;2022-09-03T14:17:45;100348.53;;;21.76;48.49
31717;BME280;18301;51.076;17.046;2022-09-03T14:23:21;100350.97;;;21.56;49.31
31717;BME280;18301;51.076;17.046;2022-09-03T14:39:01;100347.03;;;21.35;49.46
31717;BME280;18301;51.076;17.046;2022-09-03T14:49:58;100352.63;;;21.42;50.80
31717;BME280;18301;51.076;17.046;2022-09-03T14:55:14;100344.63;;;21.70;50.30
31717;BME280;18301;51.076;17.046;2022-09-03T15:00:43;100345.28;;;21.57;51.66
31717;BME280;18301;51.076;17.046;2022-09-03T15:11:33;100342.75;;;21.56;50.68
31717;BME280;18301;51.076;17.046;2022-09-03T15:22:18;100344.63;;;21.55;50.55
31717;BME280;18301;51.076;17.046;2022-09-03T15:33:35;100339.94;;;21.41;52.08
31717;BME280;18301;51.076;17.046;2022-09-03T15:38:57;100351.53;;;21.28;52.67
31717;BME280;18301;51.076;17.046;2022-09-03T15:44:02;100349.03;;;21.19;52.32
31717;BME280;18301;51.076;17.046;2022-09-03T15:49:15;100349.50;;;20.99;52.68
31717;BME280;18301;51.076;17.046;2022-09-03T15:54:34;100347.81;;;20.75;53.23
31717;BME280;18301;51.076;17.046;2022-09-03T15:59:50;100354.03;;;20.61;54.06
31717;BME280;18301;51.076;17.046;2022-09-03T16:10:16;100361.00;;;20.32;54.59
31717;BME280;18301;51.076;17.046;2022-09-03T16:20:40;100352.59;;;20.34;54.71
31717;BME280;18301;51.076;17.046;2022-09-03T16:25:45;100342.22;;;20.13;54.92
31717;BME280;18301;51.076;17.046;2022-09-03T16:57:43;100351.91;;;19.51;56.91
31717;BME280;18301;51.076;17.046;2022-09-03T17:35:04;100354.47;;;18.88;59.24
31717;BME280;18301;51.076;17.046;2022-09-03T17:40:20;100356.31;;;18.79;59.65
31717;BME280;18301;51.076;17.046;2022-09-03T17:50:49;100360.34;;;18.58;60.34
31717;BME280;18301;51.076;17.046;2022-09-03T17:55:56;100361.69;;;18.54;60.45
31717;BME280;18301;51.076;17.046;2022-09-03T18:11:46;100361.41;;;18.23;61.81
31717;BME280;18301;51.076;17.046;2022-09-03T18:16:53;100361.22;;;18.16;62.31
31717;BME280;18301;51.076;17.046;2022-09-03T18:22:02;100360.47;;;18.06;62.86
31717;BME280;18301;51.076;17.046;2022-09-03T18:33:24;100390.56;;;17.88;63.55
31717;BME280;18301;51.076;17.046;2022-09-03T18:38:44;100403.00;;;17.83;63.94
31717;BME280;18301;51.076;17.046;2022-09-03T18:44:17;100405.63;;;17.75;64.26
31717;BME280;18301;51.076;17.046;2022-09-03T18:49:48;100399.09;;;17.67;64.43
31717;BME280;18301;51.076;17.046;2022-09-03T19:00:40;100415.84;;;17.55;65.18
31717;BME280;18301;51.076;17.046;2022-09-03T19:06:32;100415.31;;;17.51;65.64
31717;BME280;18301;51.076;17.046;2022-09-03T19:22:42;100408.34;;;17.31;66.05
31717;BME280;18301;51.076;17.046;2022-09-03T19:28:22;100414.44;;;17.24;66.43
31717;BME280;18301;51.076;17.046;2022-09-03T19:50:31;100429.41;;;16.93;67.67
31717;BME280;18301;51.076;17.046;2022-09-03T19:55:55;100422.16;;;16.84;68.09
31717;BME280;18301;51.076;17.046;2022-09-03T20:01:16;100422.16;;;16.84;68.17
31717;BME280;18301;51.076;17.046;2022-09-03T20:06:38;100432.81;;;16.77;68.48
31717;BME280;18301;51.076;17.046;2022-09-03T20:12:03;100426.84;;;16.64;69.08
31717;BME280;18301;51.076;17.046;2022-09-03T20:17:27;100435.75;;;16.56;69.44
31717;BME280;18301;51.076;17.046;2022-09-03T20:22:57;100434.38;;;16.52;70.01
31717;BME280;18301;51.076;17.046;2022-09-03T20:33:34;100426.06;;;16.44;70.10
31717;BME280;18301;51.076;17.046;2022-09-03T20:55:27;100439.06;;;16.22;71.67
31717;BME280;18301;51.076;17.046;2022-09-03T21:00:42;100455.69;;;16.19;71.81
31717;BME280;18301;51.076;17.046;2022-09-03T21:06:01;100455.31;;;16.14;71.99
31717;BME280;18301;51.076;17.046;2022-09-03T21:11:48;100453.00;;;16.09;72.21
31717;BME280;18301;51.076;17.046;2022-09-03T21:16:58;100456.88;;;16.07;72.51
31717;BME280;18301;51.076;17.046;2022-09-03T21:22:31;100466.34;;;16.03;72.75
31717;BME280;18301;51.076;17.046;2022-09-03T21:27:42;100464.09;;;15.98;72.75
31717;BME280;18301;51.076;17.046;2022-09-03T21:32:48;100460.94;;;15.93;73.12
31717;BME280;18301;51.076;17.046;2022-09-03T21:38:01;100467.41;;;15.92;73.15
31717;BME280;18301;51.076;17.046;2022-09-03T21:43:12;100467.53;;;15.91;73.18
31717;BME280;18301;51.076;17.046;2022-09-03T21:48:31;100468.84;;;15.86;73.37
31717;BME280;18301;51.076;17.046;2022-09-03T22:03:54;100477.88;;;15.68;73.83
31717;BME280;18301;51.076;17.046;2022-09-03T22:09:11;100489.16;;;15.63;73.93
31717;BME280;18301;51.076;17.046;2022-09-03T22:14:16;100485.28;;;15.56;74.17
31717;BME280;18301;51.076;17.046;2022-09-03T22:19:19;100485.28;;;15.56;74.19
31717;BME280;18301;51.076;17.046;2022-09-03T22:24:36;100486.72;;;15.50;74.41
31717;BME280;18301;51.076;17.046;2022-09-03T22:40:21;100466.97;;;15.38;75.08
31717;BME280;18301;51.076;17.046;2022-09-03T22:45:50;100479.84;;;15.36;75.21
31717;BME280;18301;51.076;17.046;2022-09-03T22:50:59;100470.13;;;15.24;75.26
31717;BME280;18301;51.076;17.046;2022-09-03T22:56:10;100465.81;;;15.22;75.51
31717;BME280;18301;51.076;17.046;2022-09-03T23:01:16;100468.94;;;15.17;75.74
31717;BME280;18301;51.076;17.046;2022-09-03T23:06:38;100459.81;;;15.18;75.86
31717;BME280;18301;51.076;17.046;2022-09-03T23:11:48;100464.38;;;15.17;75.58
31717;BME280;18301;51.076;17.046;2022-09-03T23:16:56;100458.34;;;15.14;76.15
31717;BME280;18301;51.076;17.046;2022-09-03T23:22:04;100443.91;;;15.04;76.10
31717;BME280;18301;51.076;17.046;2022-09-03T23:27:12;100464.63;;;15.05;76.32
31717;BME280;18301;51.076;17.046;2022-09-03T23:32:15;100471.81;;;15.06;76.42
31717;BME280;18301;51.076;17.046;2022-09-03T23:37:41;100460.50;;;15.01;76.82
